createdAt,value
2018-02-25T00:00:23.360Z,60.42
2018-02-25T00:01:23.162Z,60.36
2018-02-25T00:03:16.426Z,60.74
2018-02-25T00:04:16.326Z,60.33
2018-02-25T00:06:09.570Z,60.14
2018-02-25T00:07:09.497Z,59.95
2018-02-25T00:09:02.753Z,59.86
2018-02-25T00:10:02.658Z,59.86
2018-02-25T00:11:55.901Z,60.24
2018-02-25T00:12:55.825Z,60.05
2018-02-25T00:14:49.087Z,60.14
2018-02-25T00:15:48.993Z,60.14
2018-02-25T00:17:42.253Z,60.61
2018-02-25T00:18:42.158Z,60.61
2018-02-25T00:20:35.414Z,60.52
2018-02-25T00:21:35.335Z,61.18
2018-02-25T00:23:28.598Z,60.89
2018-02-25T00:24:28.501Z,60.89
2018-02-25T00:26:21.745Z,61.18
2018-02-25T00:27:21.666Z,61.27
2018-02-25T00:29:14.931Z,60.71
2018-02-25T00:30:14.827Z,61.18
2018-02-25T00:32:08.075Z,60.89
2018-02-25T00:33:08.006Z,60.99
2018-02-25T00:35:01.265Z,61.18
2018-02-25T00:36:01.162Z,60.80
2018-02-25T00:37:54.437Z,61.18
2018-02-25T00:38:54.339Z,61.18
2018-02-25T00:40:47.575Z,61.74
2018-02-25T00:41:47.499Z,61.65
2018-02-25T00:43:40.758Z,61.74
2018-02-25T00:44:40.663Z,61.65
2018-02-25T00:46:33.905Z,61.55
2018-02-25T00:47:33.828Z,61.65
2018-02-25T00:49:27.091Z,61.93
2018-02-25T00:50:26.999Z,61.65
2018-02-25T00:52:20.237Z,61.65
2018-02-25T00:53:20.161Z,61.65
2018-02-25T00:55:13.433Z,61.93
2018-02-25T00:56:13.334Z,61.93
2018-02-25T00:58:06.609Z,62.50
2018-02-25T00:59:06.510Z,62.40
2018-02-25T01:00:59.755Z,62.69
2018-02-25T01:01:59.677Z,62.69
2018-02-25T01:03:52.942Z,62.59
2018-02-25T01:04:52.843Z,62.59
2018-02-25T01:06:46.085Z,62.59
2018-02-25T01:07:46.009Z,62.59
2018-02-25T01:09:39.271Z,62.02
2018-02-25T01:10:39.174Z,62.12
2018-02-25T01:12:32.576Z,62.50
2018-02-25T01:13:32.497Z,62.12
2018-02-25T01:15:25.876Z,62.21
2018-02-25T01:16:25.661Z,62.59
2018-02-25T01:18:18.927Z,62.40
2018-02-25T01:19:18.828Z,62.31
2018-02-25T01:21:12.071Z,62.59
2018-02-25T01:22:11.994Z,62.02
2018-02-25T01:24:05.254Z,62.59
2018-02-25T01:25:05.158Z,62.59
2018-02-25T01:26:58.580Z,62.59
2018-02-25T01:27:58.501Z,62.40
2018-02-25T01:29:51.753Z,62.21
2018-02-25T01:30:51.659Z,62.02
2018-02-25T01:32:45.015Z,62.31
2018-02-25T01:33:44.822Z,62.31
2018-02-25T01:35:38.087Z,62.21
2018-02-25T01:36:37.992Z,62.40
2018-02-25T01:38:31.252Z,62.40
2018-02-25T01:39:31.157Z,62.97
2018-02-25T01:41:24.583Z,62.69
2018-02-25T01:42:24.508Z,62.59
2018-02-25T01:44:17.770Z,62.50
2018-02-25T01:45:17.673Z,62.59
2018-02-25T01:47:11.033Z,62.50
2018-02-25T01:48:10.842Z,62.88
2018-02-25T01:50:04.094Z,62.59
2018-02-25T01:51:03.997Z,62.78
2018-02-25T01:52:57.258Z,62.97
2018-02-25T01:53:57.163Z,62.59
2018-02-25T01:55:50.596Z,62.88
2018-02-25T01:56:50.500Z,62.78
2018-02-25T01:58:43.760Z,62.78
2018-02-25T01:59:43.662Z,62.78
2018-02-25T02:01:36.919Z,62.78
2018-02-25T02:02:36.836Z,62.59
2018-02-25T02:04:30.098Z,62.78
2018-02-25T02:05:30.002Z,62.78
2018-02-25T02:07:23.244Z,62.88
2018-02-25T02:08:23.165Z,63.07
2018-02-25T02:10:16.606Z,62.78
2018-02-25T02:11:16.508Z,62.88
2018-02-25T02:13:09.781Z,62.59
2018-02-25T02:14:09.682Z,62.40
2018-02-25T02:16:02.945Z,62.40
2018-02-25T02:17:02.848Z,62.40
2018-02-25T02:18:56.107Z,62.78
2018-02-25T02:19:56.006Z,62.59
2018-02-25T02:21:49.254Z,62.78
2018-02-25T02:22:49.175Z,62.59
2018-02-25T02:24:42.592Z,62.50
2018-02-25T02:25:42.494Z,62.50
2018-02-25T02:27:35.733Z,62.78
2018-02-25T02:28:35.658Z,62.78
2018-02-25T02:30:29.043Z,62.50
2018-02-25T02:31:28.814Z,62.59
2018-02-25T02:33:22.074Z,62.88
2018-02-25T02:34:21.977Z,63.16
2018-02-25T02:36:15.242Z,62.69
2018-02-25T02:37:15.140Z,62.69
2018-02-25T02:39:08.404Z,62.50
2018-02-25T02:40:08.307Z,63.07
2018-02-25T02:42:01.580Z,63.35
2018-02-25T02:43:01.493Z,63.45
2018-02-25T02:44:54.752Z,63.70
2018-02-25T02:45:54.662Z,63.51
2018-02-25T02:47:48.016Z,63.63
2018-02-25T02:48:47.826Z,63.60
2018-02-25T02:50:41.161Z,63.51
2018-02-25T02:51:40.978Z,63.51
2018-02-25T02:53:34.249Z,63.60
2018-02-25T02:54:34.145Z,63.70
2018-02-25T02:56:27.583Z,63.79
2018-02-25T02:57:27.500Z,63.60
2018-02-25T02:59:20.876Z,63.79
2018-02-25T03:00:20.664Z,63.70
2018-02-25T03:02:13.907Z,63.98
2018-02-25T03:03:13.829Z,63.79
2018-02-25T03:05:07.093Z,63.98
2018-02-25T03:06:06.992Z,63.51
2018-02-25T03:08:00.241Z,64.36
2018-02-25T03:09:00.160Z,64.17
2018-02-25T03:10:53.605Z,64.73
2018-02-25T03:11:53.505Z,64.73
2018-02-25T03:13:46.888Z,64.83
2018-02-25T03:14:46.668Z,64.73
2018-02-25T03:16:40.024Z,65.11
2018-02-25T03:17:39.860Z,64.92
2018-02-25T03:19:33.096Z,65.30
2018-02-25T03:20:33.000Z,65.11
2018-02-25T03:22:26.237Z,65.77
2018-02-25T03:23:26.161Z,65.58
2018-02-25T03:25:19.604Z,65.48
2018-02-25T03:26:19.505Z,65.58
2018-02-25T03:28:12.865Z,65.77
2018-02-25T03:29:12.671Z,65.58
2018-02-25T03:31:06.059Z,65.77
2018-02-25T03:32:05.830Z,65.96
2018-02-25T03:33:59.094Z,66.24
2018-02-25T03:34:58.999Z,66.34
2018-02-25T03:36:52.355Z,66.15
2018-02-25T03:37:52.163Z,65.96
2018-02-25T03:39:46.045Z,66.71
2018-02-25T03:40:45.503Z,66.43
2018-02-25T03:42:38.745Z,66.90
2018-02-25T03:43:38.666Z,66.81
2018-02-25T03:45:31.931Z,66.71
2018-02-25T03:46:31.833Z,67.28
2018-02-25T03:48:25.075Z,67.57
2018-02-25T03:49:25.028Z,67.75
2018-02-25T03:51:18.370Z,67.66
2018-02-25T03:52:18.158Z,67.94
2018-02-25T03:54:11.600Z,68.32
2018-02-25T03:55:11.504Z,67.85
2018-02-25T03:57:04.738Z,68.79
2018-02-25T03:58:04.661Z,68.98
2018-02-25T03:59:57.912Z,69.45
2018-02-25T04:00:57.816Z,69.45
2018-02-25T04:02:51.056Z,69.35
2018-02-25T04:03:50.979Z,69.54
2018-02-25T04:05:44.240Z,70.20
2018-02-25T04:06:44.141Z,70.30
2018-02-25T04:08:37.580Z,70.87
2018-02-25T04:09:37.499Z,70.49
2018-02-25T04:11:30.759Z,70.87
2018-02-25T04:12:30.661Z,70.87
2018-02-25T04:14:23.921Z,71.43
2018-02-25T04:15:23.823Z,71.34
2018-02-25T04:17:17.068Z,71.53
2018-02-25T04:18:16.990Z,71.81
2018-02-25T04:20:10.244Z,72.38
2018-02-25T04:21:10.142Z,72.00
2018-02-25T04:23:03.579Z,72.38
2018-02-25T04:24:03.500Z,72.28
2018-02-25T04:25:56.762Z,72.75
2018-02-25T04:26:56.663Z,72.94
2018-02-25T04:28:49.911Z,73.03
2018-02-25T04:29:49.826Z,73.41
2018-02-25T04:31:43.209Z,73.41
2018-02-25T04:32:42.987Z,73.60
2018-02-25T04:34:36.260Z,73.88
2018-02-25T04:35:36.153Z,73.79
2018-02-25T04:37:29.576Z,73.69
2018-02-25T04:38:29.503Z,73.88
2018-02-25T04:40:22.759Z,73.88
2018-02-25T04:41:22.663Z,74.26
2018-02-25T04:43:15.906Z,74.36
2018-02-25T04:44:15.829Z,74.22
2018-02-25T04:46:09.206Z,74.17
2018-02-25T04:47:08.990Z,74.26
2018-02-25T04:49:02.233Z,75.02
2018-02-25T04:50:02.152Z,74.64
2018-02-25T04:51:55.594Z,74.64
2018-02-25T04:52:55.502Z,74.83
2018-02-25T04:54:48.757Z,74.60
2018-02-25T04:55:48.662Z,74.51
2018-02-25T04:57:41.914Z,74.83
2018-02-25T04:58:41.835Z,74.88
2018-02-25T05:00:35.215Z,75.07
2018-02-25T05:01:34.996Z,75.17
2018-02-25T05:03:28.251Z,75.26
2018-02-25T05:04:28.171Z,75.78
2018-02-25T05:06:21.602Z,75.36
2018-02-25T05:07:21.498Z,75.54
2018-02-25T05:09:14.868Z,75.92
2018-02-25T05:10:14.669Z,75.92
2018-02-25T05:12:07.923Z,75.73
2018-02-25T05:13:07.848Z,75.64
2018-02-25T05:15:01.086Z,75.45
2018-02-25T05:16:00.987Z,76.30
2018-02-25T05:17:54.231Z,75.92
2018-02-25T05:18:54.150Z,76.02
2018-02-25T05:20:47.607Z,76.02
2018-02-25T05:21:47.495Z,76.02
2018-02-25T05:23:40.736Z,76.21
2018-02-25T05:24:40.658Z,76.21
2018-02-25T05:26:33.924Z,76.30
2018-02-25T05:27:33.822Z,76.40
2018-02-25T05:29:27.064Z,76.77
2018-02-25T05:30:26.992Z,76.77
2018-02-25T05:32:20.244Z,76.49
2018-02-25T05:33:20.148Z,76.58
2018-02-25T05:35:13.598Z,76.87
2018-02-25T05:36:13.500Z,77.06
2018-02-25T05:38:06.737Z,76.58
2018-02-25T05:39:06.661Z,76.40
2018-02-25T05:41:00.037Z,76.30
2018-02-25T05:41:59.828Z,77.44
2018-02-25T05:43:53.063Z,77.25
2018-02-25T05:44:52.987Z,76.96
2018-02-25T05:46:46.245Z,77.15
2018-02-25T05:47:46.147Z,76.87
2018-02-25T05:49:39.579Z,76.30
2018-02-25T05:50:39.502Z,76.49
2018-02-25T05:52:32.761Z,76.58
2018-02-25T05:53:32.663Z,76.49
2018-02-25T05:55:25.921Z,77.06
2018-02-25T05:56:25.820Z,76.58
2018-02-25T05:58:19.181Z,76.87
2018-02-25T05:59:18.987Z,77.06
2018-02-25T06:01:12.259Z,77.44
2018-02-25T06:02:12.157Z,77.34
2018-02-25T06:04:05.582Z,77.44
2018-02-25T06:05:05.506Z,77.72
2018-02-25T06:06:58.756Z,77.44
2018-02-25T06:07:58.665Z,77.25
2018-02-25T06:09:52.020Z,77.44
2018-02-25T06:10:51.842Z,77.72
2018-02-25T06:12:45.101Z,77.15
2018-02-25T06:13:45.000Z,77.44
2018-02-25T06:15:38.261Z,77.44
2018-02-25T06:16:38.162Z,77.62
2018-02-25T06:18:31.579Z,77.81
2018-02-25T06:19:31.502Z,77.91
2018-02-25T06:21:24.878Z,78.00
2018-02-25T06:22:24.666Z,77.91
2018-02-25T06:24:17.904Z,77.81
2018-02-25T06:25:17.828Z,78.00
2018-02-25T06:27:11.090Z,77.91
2018-02-25T06:28:10.989Z,77.91
2018-02-25T06:30:04.229Z,78.00
2018-02-25T06:31:04.151Z,77.62
2018-02-25T06:32:58.028Z,77.53
2018-02-25T06:33:57.500Z,77.81
2018-02-25T06:35:50.758Z,77.44
2018-02-25T06:36:50.690Z,77.81
2018-02-25T06:38:43.901Z,77.81
2018-02-25T06:39:43.815Z,77.91
2018-02-25T06:41:37.081Z,77.81
2018-02-25T06:42:36.983Z,77.81
2018-02-25T06:44:30.220Z,77.62
2018-02-25T06:45:30.144Z,77.44
2018-02-25T06:47:23.603Z,77.81
2018-02-25T06:48:23.505Z,77.72
2018-02-25T06:50:16.745Z,77.44
2018-02-25T06:51:16.669Z,77.81
2018-02-25T06:53:09.928Z,77.81
2018-02-25T06:54:09.829Z,77.81
2018-02-25T06:56:03.202Z,78.00
2018-02-25T06:57:02.990Z,77.81
2018-02-25T06:58:56.229Z,77.81
2018-02-25T06:59:56.153Z,77.81
2018-02-25T07:01:49.415Z,77.81
2018-02-25T07:02:49.315Z,77.53
2018-02-25T07:04:42.578Z,77.34
2018-02-25T07:05:42.498Z,77.72
2018-02-25T07:07:35.757Z,77.81
2018-02-25T07:08:35.658Z,77.53
2018-02-25T07:10:28.900Z,77.53
2018-02-25T07:11:28.825Z,76.87
2018-02-25T07:13:22.080Z,77.25
2018-02-25T07:14:21.985Z,76.77
2018-02-25T07:16:15.244Z,77.06
2018-02-25T07:17:15.145Z,76.77
2018-02-25T07:19:08.582Z,76.96
2018-02-25T07:20:08.500Z,77.15
2018-02-25T07:22:01.877Z,76.96
2018-02-25T07:23:01.666Z,76.87
2018-02-25T07:24:55.020Z,76.30
2018-02-25T07:25:54.831Z,76.40
2018-02-25T07:27:48.107Z,76.58
2018-02-25T07:28:47.991Z,76.68
2018-02-25T07:30:41.229Z,76.68
2018-02-25T07:31:41.151Z,76.30
2018-02-25T07:33:34.408Z,75.64
2018-02-25T07:34:34.318Z,75.54
2018-02-25T07:36:27.689Z,75.26
2018-02-25T07:37:27.498Z,75.83
2018-02-25T07:39:20.736Z,75.68
2018-02-25T07:40:20.651Z,75.17
2018-02-25T07:42:13.947Z,74.83
2018-02-25T07:43:13.822Z,74.83
2018-02-25T07:45:07.063Z,74.74
2018-02-25T07:46:06.985Z,74.64
2018-02-25T07:48:00.245Z,74.13
2018-02-25T07:49:00.157Z,73.98
2018-02-25T07:50:53.505Z,73.79
2018-02-25T07:51:53.313Z,73.51
2018-02-25T07:53:46.596Z,73.03
2018-02-25T07:54:46.500Z,73.22
2018-02-25T07:56:39.758Z,72.85
2018-02-25T07:57:39.697Z,72.75
2018-02-25T07:59:32.899Z,72.38
2018-02-25T08:00:32.824Z,72.47
2018-02-25T08:02:26.198Z,72.38
2018-02-25T08:03:26.008Z,71.62
2018-02-25T08:05:19.229Z,72.28
2018-02-25T08:06:19.150Z,71.53
2018-02-25T08:08:12.595Z,71.72
2018-02-25T08:09:12.494Z,71.62
2018-02-25T08:11:05.740Z,70.96
2018-02-25T08:12:05.658Z,70.68
2018-02-25T08:13:58.914Z,70.11
2018-02-25T08:14:58.822Z,69.92
2018-02-25T08:16:52.080Z,70.02
2018-02-25T08:17:51.983Z,70.49
2018-02-25T08:19:45.224Z,70.11
2018-02-25T08:20:45.146Z,69.64
2018-02-25T08:22:38.601Z,69.73
2018-02-25T08:23:38.501Z,69.26
2018-02-25T08:25:31.742Z,69.45
2018-02-25T08:26:31.655Z,68.60
2018-02-25T08:28:24.910Z,68.88
2018-02-25T08:29:24.806Z,68.70
2018-02-25T08:31:18.162Z,69.45
2018-02-25T08:32:17.960Z,69.54
2018-02-25T08:34:12.069Z,68.51
2018-02-25T08:35:11.972Z,67.94
2018-02-25T08:37:05.236Z,67.75
2018-02-25T08:38:05.137Z,67.60
2018-02-25T08:39:58.379Z,67.88
2018-02-25T08:40:58.292Z,67.50
2018-02-25T08:42:51.545Z,66.09
2018-02-25T08:43:51.447Z,66.09
2018-02-25T08:45:44.694Z,65.90
2018-02-25T08:46:44.614Z,65.42
2018-02-25T08:48:37.868Z,64.86
2018-02-25T08:49:37.769Z,65.05
2018-02-25T08:51:32.018Z,64.86
2018-02-25T08:52:31.928Z,65.42
2018-02-25T08:54:25.186Z,64.98
2018-02-25T08:55:25.090Z,63.85
2018-02-25T08:57:18.595Z,61.15
2018-02-25T08:58:18.498Z,59.54
2018-02-25T09:00:11.736Z,56.82
2018-02-25T09:01:11.658Z,55.38
2018-02-25T09:03:04.912Z,56.23
2018-02-25T09:04:04.821Z,55.94
2018-02-25T09:05:58.054Z,56.86
2018-02-25T09:06:57.986Z,57.81
2018-02-25T09:08:51.357Z,59.13
2018-02-25T09:09:51.148Z,58.65
2018-02-25T09:11:44.580Z,57.62
2018-02-25T09:12:44.503Z,57.37
2018-02-25T09:14:37.767Z,55.57
2018-02-25T09:15:37.672Z,54.81
2018-02-25T09:17:30.942Z,54.06
2018-02-25T09:18:30.847Z,53.02
2018-02-25T09:20:24.092Z,52.64
2018-02-25T09:21:24.017Z,52.64
2018-02-25T09:23:17.304Z,51.98
2018-02-25T09:24:17.198Z,52.29
2018-02-25T09:26:10.636Z,51.06
2018-02-25T09:27:10.564Z,50.23
2018-02-25T09:29:03.826Z,50.40
2018-02-25T09:30:03.723Z,51.15
2018-02-25T09:31:57.082Z,50.40
2018-02-25T09:32:56.885Z,49.45
2018-02-25T09:34:50.155Z,49.07
2018-02-25T09:35:50.060Z,49.73
2018-02-25T09:37:43.321Z,48.97
2018-02-25T09:38:43.226Z,48.13
2018-02-25T09:40:36.613Z,47.47
2018-02-25T09:41:36.507Z,47.47
2018-02-25T09:43:29.776Z,46.55
2018-02-25T09:44:29.675Z,46.55
2018-02-25T09:46:23.033Z,44.74
2018-02-25T09:47:22.838Z,44.46
2018-02-25T09:49:16.104Z,45.48
2018-02-25T09:50:16.012Z,46.07
2018-02-25T09:52:09.252Z,45.22
2018-02-25T09:53:09.181Z,45.22
2018-02-25T09:55:02.590Z,44.10
2018-02-25T09:56:02.499Z,43.73
2018-02-25T09:57:55.761Z,43.44
2018-02-25T09:58:55.666Z,42.59
2018-02-25T10:00:48.910Z,41.19
2018-02-25T10:01:48.839Z,40.89
2018-02-25T10:03:42.221Z,42.11
2018-02-25T10:04:42.016Z,41.93
2018-02-25T10:06:35.273Z,41.63
2018-02-25T10:07:35.197Z,42.57
2018-02-25T10:09:28.592Z,44.34
2018-02-25T10:10:28.499Z,44.37
2018-02-25T10:12:21.751Z,43.26
2018-02-25T10:13:21.681Z,42.38
2018-02-25T10:15:14.951Z,41.64
2018-02-25T10:16:14.861Z,41.17
2018-02-25T10:18:08.130Z,41.74
2018-02-25T10:19:08.038Z,41.36
2018-02-25T10:21:01.401Z,41.63
2018-02-25T10:22:01.252Z,42.38
2018-02-25T10:23:54.594Z,41.63
2018-02-25T10:24:54.500Z,41.63
2018-02-25T10:26:47.862Z,41.63
2018-02-25T10:27:47.677Z,41.74
2018-02-25T10:29:41.058Z,41.27
2018-02-25T10:30:40.861Z,40.98
2018-02-25T10:32:34.113Z,42.10
2018-02-25T10:33:34.040Z,42.38
2018-02-25T10:35:27.307Z,43.04
2018-02-25T10:36:27.214Z,43.12
2018-02-25T10:38:20.599Z,44.25
2018-02-25T10:39:20.509Z,45.29
2018-02-25T10:41:13.755Z,44.82
2018-02-25T10:42:13.680Z,44.91
2018-02-25T10:44:06.992Z,44.18
2018-02-25T10:45:06.857Z,43.52
2018-02-25T10:47:00.109Z,42.30
2018-02-25T10:48:00.036Z,41.93
2018-02-25T10:49:53.300Z,41.17
2018-02-25T10:50:53.200Z,40.89
2018-02-25T10:52:46.574Z,40.49
2018-02-25T10:53:46.502Z,41.17
2018-02-25T10:55:39.765Z,39.65
2018-02-25T10:56:39.668Z,38.88
2018-02-25T10:58:32.929Z,39.64
2018-02-25T10:59:32.839Z,40.30
2018-02-25T11:01:26.195Z,40.49
2018-02-25T11:02:26.004Z,40.96
2018-02-25T11:04:19.262Z,42.64
2018-02-25T11:05:19.169Z,42.66
2018-02-25T11:07:12.573Z,42.47
2018-02-25T11:08:12.499Z,41.15
2018-02-25T11:10:05.776Z,40.77
2018-02-25T11:11:05.668Z,40.77
2018-02-25T11:12:58.906Z,41.13
2018-02-25T11:13:58.831Z,40.84
2018-02-25T11:15:52.092Z,40.66
2018-02-25T11:16:52.000Z,41.03
2018-02-25T11:18:45.266Z,43.00
2018-02-25T11:19:45.171Z,43.38
2018-02-25T11:21:38.592Z,43.76
2018-02-25T11:22:38.500Z,43.47
2018-02-25T11:24:31.755Z,44.42
2018-02-25T11:25:31.663Z,44.32
2018-02-25T11:27:24.904Z,43.76
2018-02-25T11:28:24.825Z,43.57
2018-02-25T11:30:18.092Z,43.09
2018-02-25T11:31:18.024Z,42.93
2018-02-25T11:33:11.228Z,42.71
2018-02-25T11:34:11.154Z,43.12
2018-02-25T11:36:04.591Z,43.02
2018-02-25T11:37:04.497Z,42.93
2018-02-25T11:38:57.875Z,44.04
2018-02-25T11:39:57.656Z,44.70
2018-02-25T11:41:50.891Z,44.23
2018-02-25T11:42:50.824Z,44.79
2018-02-25T11:44:44.215Z,44.82
2018-02-25T11:45:43.976Z,44.98
2018-02-25T11:47:37.220Z,46.23
2018-02-25T11:48:37.140Z,46.23
2018-02-25T11:50:30.588Z,46.61
2018-02-25T11:51:30.495Z,46.52
2018-02-25T11:53:23.732Z,46.42
2018-02-25T11:54:23.653Z,46.42
2018-02-25T11:56:16.913Z,46.40
2018-02-25T11:57:16.817Z,46.69
2018-02-25T11:59:10.074Z,47.72
2018-02-25T12:00:09.979Z,47.25
2018-02-25T12:02:03.226Z,46.40
2018-02-25T12:03:03.139Z,46.12
2018-02-25T12:04:56.594Z,46.21
2018-02-25T12:05:56.499Z,46.12
2018-02-25T12:07:49.785Z,45.83
2018-02-25T12:08:49.707Z,46.04
2018-02-25T12:10:43.013Z,45.86
2018-02-25T12:11:42.923Z,45.95
2018-02-25T12:13:36.155Z,46.04
2018-02-25T12:14:36.083Z,46.59
2018-02-25T12:16:29.333Z,47.44
2018-02-25T12:17:29.247Z,47.25
2018-02-25T12:19:22.605Z,47.47
2018-02-25T12:20:22.507Z,47.18
2018-02-25T12:22:15.744Z,46.04
2018-02-25T12:23:15.666Z,45.45
2018-02-25T12:25:08.923Z,46.40
2018-02-25T12:26:08.825Z,46.40
2018-02-25T12:28:02.064Z,46.23
2018-02-25T12:29:02.011Z,46.12
2018-02-25T12:30:55.240Z,46.21
2018-02-25T12:31:55.143Z,46.50
2018-02-25T12:33:48.577Z,46.33
2018-02-25T12:34:48.502Z,46.04
2018-02-25T12:36:41.884Z,46.02
2018-02-25T12:37:41.668Z,46.12
2018-02-25T12:39:35.046Z,45.67
2018-02-25T12:40:34.826Z,46.04
2018-02-25T12:42:28.071Z,45.39
2018-02-25T12:43:27.995Z,45.10
2018-02-25T12:45:21.250Z,45.29
2018-02-25T12:46:21.156Z,44.53
2018-02-25T12:48:14.575Z,44.72
2018-02-25T12:49:14.498Z,44.53
2018-02-25T12:51:07.754Z,44.82
2018-02-25T12:52:07.658Z,44.44
2018-02-25T12:54:01.022Z,45.55
2018-02-25T12:55:00.816Z,45.93
2018-02-25T12:56:54.199Z,46.14
2018-02-25T12:57:53.977Z,46.04
2018-02-25T12:59:47.234Z,45.29
2018-02-25T13:00:47.144Z,45.08
2018-02-25T13:02:40.576Z,45.10
2018-02-25T13:03:40.502Z,45.29
2018-02-25T13:05:33.755Z,44.82
2018-02-25T13:06:33.667Z,44.53
2018-02-25T13:08:26.896Z,45.20
2018-02-25T13:09:26.822Z,45.01
2018-02-25T13:11:20.079Z,45.29
2018-02-25T13:12:19.983Z,45.29
2018-02-25T13:14:13.228Z,45.48
2018-02-25T13:15:13.150Z,45.48
2018-02-25T13:17:06.599Z,45.20
2018-02-25T13:18:06.504Z,45.17
2018-02-25T13:19:59.769Z,46.12
2018-02-25T13:20:59.661Z,45.93
2018-02-25T13:22:52.902Z,46.21
2018-02-25T13:23:52.825Z,45.64
2018-02-25T13:25:46.101Z,46.02
2018-02-25T13:26:46.012Z,45.93
2018-02-25T13:28:39.418Z,45.74
2018-02-25T13:29:39.171Z,46.02
2018-02-25T13:31:32.597Z,45.48
2018-02-25T13:32:32.501Z,45.29
2018-02-25T13:34:25.786Z,45.10
2018-02-25T13:35:25.661Z,45.20
2018-02-25T13:37:18.916Z,44.53
2018-02-25T13:38:18.820Z,44.72
2018-02-25T13:40:12.082Z,44.63
2018-02-25T13:41:11.984Z,44.15
2018-02-25T13:43:05.350Z,43.96
2018-02-25T13:44:05.144Z,43.49
2018-02-25T13:45:58.398Z,43.59
2018-02-25T13:46:58.303Z,43.40
2018-02-25T13:48:51.542Z,43.77
2018-02-25T13:49:51.462Z,43.87
2018-02-25T13:51:45.741Z,43.96
2018-02-25T13:52:45.626Z,44.44
2018-02-25T13:54:38.984Z,45.86
2018-02-25T13:55:38.785Z,45.86
2018-02-25T13:57:32.047Z,45.95
2018-02-25T13:58:31.953Z,46.50
2018-02-25T14:00:25.208Z,47.34
2018-02-25T14:01:25.112Z,47.72
2018-02-25T14:03:18.346Z,47.94
2018-02-25T14:04:18.270Z,47.85
2018-02-25T14:06:11.650Z,47.85
2018-02-25T14:07:11.450Z,47.56
2018-02-25T14:09:04.688Z,47.56
2018-02-25T14:10:04.587Z,47.66
2018-02-25T14:11:57.853Z,46.61
2018-02-25T14:12:57.755Z,46.23
2018-02-25T14:14:50.991Z,46.23
2018-02-25T14:15:50.912Z,46.14
2018-02-25T14:17:44.176Z,46.31
2018-02-25T14:18:44.081Z,46.21
2018-02-25T14:20:37.463Z,46.61
2018-02-25T14:21:37.247Z,46.31
2018-02-25T14:23:30.590Z,46.59
2018-02-25T14:24:30.503Z,46.50
2018-02-25T14:26:23.762Z,46.88
2018-02-25T14:27:23.666Z,47.06
2018-02-25T14:29:17.026Z,46.78
2018-02-25T14:30:16.823Z,46.78
2018-02-25T14:32:10.086Z,47.34
2018-02-25T14:33:09.983Z,47.47
2018-02-25T14:35:03.220Z,46.61
2018-02-25T14:36:03.143Z,46.61
2018-02-25T14:37:56.588Z,46.23
2018-02-25T14:38:56.496Z,45.74
2018-02-25T14:40:49.754Z,46.71
2018-02-25T14:41:49.656Z,46.40
2018-02-25T14:43:43.015Z,46.31
2018-02-25T14:44:42.825Z,46.59
2018-02-25T14:46:36.081Z,46.78
2018-02-25T14:47:35.998Z,46.33
2018-02-25T14:49:29.374Z,45.95
2018-02-25T14:50:29.144Z,46.50
2018-02-25T14:52:22.593Z,46.59
2018-02-25T14:53:22.546Z,46.71
2018-02-25T14:55:15.858Z,46.14
2018-02-25T14:56:15.668Z,46.52
2018-02-25T14:58:08.924Z,46.42
2018-02-25T14:59:08.828Z,45.86
2018-02-25T15:01:02.208Z,46.42
2018-02-25T15:02:01.985Z,46.33
2018-02-25T15:03:55.221Z,46.52
2018-02-25T15:04:55.143Z,46.50
2018-02-25T15:06:48.600Z,46.33
2018-02-25T15:07:48.506Z,46.31
2018-02-25T15:09:41.750Z,47.44
2018-02-25T15:10:41.675Z,47.37
2018-02-25T15:12:34.940Z,46.59
2018-02-25T15:13:34.832Z,46.78
2018-02-25T15:15:28.071Z,47.37
2018-02-25T15:16:27.996Z,47.56
2018-02-25T15:18:21.249Z,46.61
2018-02-25T15:19:21.151Z,46.61
2018-02-25T15:21:14.606Z,46.61
2018-02-25T15:22:14.509Z,46.61
2018-02-25T15:24:08.754Z,46.71
2018-02-25T15:25:08.681Z,46.31
2018-02-25T15:27:01.933Z,47.09
2018-02-25T15:28:01.840Z,47.25
2018-02-25T15:29:55.078Z,47.06
2018-02-25T15:30:54.998Z,47.06
2018-02-25T15:32:48.254Z,47.09
2018-02-25T15:33:48.158Z,47.37
2018-02-25T15:35:41.413Z,46.61
2018-02-25T15:36:41.318Z,46.90
2018-02-25T15:38:34.603Z,46.80
2018-02-25T15:39:34.516Z,46.42
2018-02-25T15:41:27.765Z,46.42
2018-02-25T15:42:27.668Z,46.61
2018-02-25T15:44:20.926Z,46.88
2018-02-25T15:45:20.855Z,47.34
2018-02-25T15:47:14.217Z,47.82
2018-02-25T15:48:14.005Z,48.20
2018-02-25T15:50:07.239Z,48.13
2018-02-25T15:51:07.158Z,47.63
2018-02-25T15:53:00.403Z,47.72
2018-02-25T15:54:00.315Z,47.82
2018-02-25T15:55:53.693Z,47.91
2018-02-25T15:56:53.504Z,48.10
2018-02-25T15:58:46.753Z,48.57
2018-02-25T15:59:46.683Z,48.86
2018-02-25T16:01:39.917Z,49.33
2018-02-25T16:02:39.823Z,49.43
2018-02-25T16:04:33.054Z,50.09
2018-02-25T16:05:32.979Z,50.09
2018-02-25T16:07:26.245Z,50.27
2018-02-25T16:08:26.152Z,50.65
2018-02-25T16:10:19.580Z,51.13
2018-02-25T16:11:19.496Z,51.22
2018-02-25T16:13:12.754Z,51.79
2018-02-25T16:14:12.660Z,52.80
2018-02-25T16:16:05.915Z,53.11
2018-02-25T16:17:05.815Z,53.58
2018-02-25T16:18:59.050Z,53.56
2018-02-25T16:19:58.973Z,53.46
2018-02-25T16:21:52.228Z,54.22
2018-02-25T16:22:52.132Z,54.88
2018-02-25T16:24:45.578Z,55.54
2018-02-25T16:25:45.505Z,55.73
2018-02-25T16:27:38.879Z,56.48
2018-02-25T16:28:38.657Z,56.67
2018-02-25T16:30:31.899Z,57.24
2018-02-25T16:31:31.824Z,57.43
2018-02-25T16:33:25.081Z,57.53
2018-02-25T16:34:24.986Z,57.43
2018-02-25T16:36:18.242Z,57.53
2018-02-25T16:37:18.147Z,57.43
2018-02-25T16:39:11.585Z,57.62
2018-02-25T16:40:11.493Z,57.90
2018-02-25T16:42:04.747Z,57.81
2018-02-25T16:43:04.648Z,57.90
2018-02-25T16:44:57.884Z,58.37
2018-02-25T16:45:57.804Z,58.75
2018-02-25T16:47:51.086Z,59.22
2018-02-25T16:48:50.991Z,59.70
2018-02-25T16:50:44.230Z,59.89
2018-02-25T16:51:44.150Z,59.98
2018-02-25T16:53:37.591Z,60.08
2018-02-25T16:54:37.554Z,59.41
2018-02-25T16:56:30.756Z,59.03
2018-02-25T16:57:30.657Z,59.32
2018-02-25T16:59:23.885Z,59.22
2018-02-25T17:00:23.810Z,59.41
2018-02-25T17:02:17.062Z,59.13
2018-02-25T17:03:16.966Z,59.41
2018-02-25T17:05:10.201Z,59.03
2018-02-25T17:06:10.121Z,59.13
2018-02-25T17:08:03.603Z,59.32
2018-02-25T17:09:03.504Z,59.22
2018-02-25T17:10:56.765Z,59.70
2018-02-25T17:11:56.670Z,59.89
2018-02-25T17:13:49.939Z,60.08
2018-02-25T17:14:49.843Z,60.17
2018-02-25T17:16:43.104Z,59.89
2018-02-25T17:17:43.008Z,60.64
2018-02-25T17:19:36.252Z,60.27
2018-02-25T17:20:36.181Z,60.83
2018-02-25T17:22:29.593Z,60.55
2018-02-25T17:23:29.502Z,60.55
2018-02-25T17:25:22.743Z,60.27
2018-02-25T17:26:22.668Z,60.46
2018-02-25T17:28:15.927Z,60.74
2018-02-25T17:29:15.832Z,61.11
2018-02-25T17:31:09.079Z,60.93
2018-02-25T17:32:09.002Z,60.93
2018-02-25T17:34:02.268Z,61.30
2018-02-25T17:35:02.171Z,61.58
2018-02-25T17:36:55.596Z,61.68
2018-02-25T17:37:55.497Z,61.58
2018-02-25T17:39:48.743Z,61.49
2018-02-25T17:40:48.665Z,61.87
2018-02-25T17:42:41.931Z,61.96
2018-02-25T17:43:41.837Z,61.77
2018-02-25T17:45:35.082Z,62.15
2018-02-25T17:46:35.006Z,62.15
2018-02-25T17:48:28.276Z,62.72
2018-02-25T17:49:28.177Z,62.81
2018-02-25T17:51:21.576Z,62.91
2018-02-25T17:52:21.492Z,63.38
2018-02-25T17:54:14.770Z,63.29
2018-02-25T17:55:24.374Z,63.38
2018-02-25T17:57:07.936Z,63.38
2018-02-25T17:58:07.842Z,63.48
2018-02-25T18:00:01.081Z,63.48
2018-02-25T18:01:00.999Z,63.95
2018-02-25T18:02:54.380Z,63.76
2018-02-25T18:03:54.173Z,63.85
2018-02-25T18:05:47.572Z,63.95
2018-02-25T18:06:47.491Z,63.76
2018-02-25T18:08:40.763Z,64.14
2018-02-25T18:09:40.656Z,64.23
2018-02-25T18:11:33.904Z,64.51
2018-02-25T18:12:33.829Z,64.61
2018-02-25T18:14:27.088Z,64.79
2018-02-25T18:15:26.992Z,64.89
2018-02-25T18:17:20.258Z,64.98
2018-02-25T18:18:20.162Z,64.89
2018-02-25T18:20:13.580Z,65.65
2018-02-25T18:21:13.500Z,65.55
2018-02-25T18:23:06.765Z,66.03
2018-02-25T18:24:06.666Z,66.12
2018-02-25T18:25:59.910Z,66.59
2018-02-25T18:26:59.838Z,66.78
2018-02-25T18:28:53.094Z,66.59
2018-02-25T18:29:53.011Z,66.47
2018-02-25T18:31:46.237Z,66.78
2018-02-25T18:32:46.166Z,67.32
2018-02-25T18:34:39.596Z,67.41